Time;durP1;ratioP1;P1;durP2;ratioP2;P2;SDS_P1;SDS_P2;PMS_P1;PMS_P2;Temp;Humidity;BMP_temperature;BMP_pressure;BME280_temperature;BME280_humidity;BME280_pressure;Samples;Min_cycle;Max_cycle;Signal;HPM_P1;HPM_P2
2021/05/02 00:01:54;;;;;;;4.53;3.63;;;7.50;90.80;;;;;;4968668;28;20569;-75
2021/05/02 00:04:20;;;;;;;5.68;4.50;;;7.40;91.10;;;;;;4964925;28;20038;-75
2021/05/02 00:06:46;;;;;;;6.60;4.03;;;7.50;91.20;;;;;;4966808;28;20654;-74
2021/05/02 00:09:11;;;;;;;5.90;4.57;;;7.50;91.10;;;;;;4964074;28;20038;-74
2021/05/02 00:11:37;;;;;;;4.72;3.70;;;7.50;91.10;;;;;;4966052;28;20030;-75
2021/05/02 00:14:03;;;;;;;5.28;3.83;;;7.50;90.90;;;;;;4968089;28;20102;-74
2021/05/02 00:16:30;;;;;;;5.43;3.67;;;7.40;91.00;;;;;;4980468;28;20026;-75
2021/05/02 00:18:56;;;;;;;4.95;3.80;;;7.40;90.90;;;;;;4965613;28;20058;-75
2021/05/02 00:21:24;;;;;;;5.35;3.20;;;7.40;91.10;;;;;;4966487;28;20023;-75
2021/05/02 00:23:50;;;;;;;3.70;3.13;;;7.40;91.00;;;;;;4966782;28;20059;-75
2021/05/02 00:26:17;;;;;;;3.75;3.15;;;7.40;91.00;;;;;;4965999;28;20590;-75
2021/05/02 00:28:51;;;;;;;3.95;3.13;;;7.40;90.90;;;;;;4967602;28;20101;-76
2021/05/02 00:31:18;;;;;;;5.20;3.80;;;7.30;90.80;;;;;;4967034;28;20081;-74
2021/05/02 00:33:44;;;;;;;4.25;2.95;;;7.30;90.90;;;;;;4967253;28;20046;-75
2021/05/02 00:36:12;;;;;;;4.30;2.63;;;7.30;91.00;;;;;;4968883;28;20109;-74
2021/05/02 00:38:40;;;;;;;4.10;2.72;;;7.30;90.80;;;;;;4969147;28;20022;-75
2021/05/02 00:41:11;;;;;;;4.18;2.90;;;7.20;90.70;;;;;;4968721;28;20031;-76
2021/05/02 00:43:45;;;;;;;3.75;3.10;;;7.20;90.70;;;;;;4968460;28;20058;-75
2021/05/02 00:46:17;;;;;;;2.92;2.45;;;7.20;91.00;;;;;;4968760;28;20035;-75
2021/05/02 00:48:46;;;;;;;5.60;3.35;;;7.10;90.90;;;;;;4968427;28;20034;-75
2021/05/02 00:51:15;;;;;;;4.60;3.20;;;7.10;91.00;;;;;;4966033;28;20050;-75
2021/05/02 00:53:53;;;;;;;4.30;3.15;;;7.10;91.10;;;;;;4967249;28;20045;-74
2021/05/02 00:56:25;;;;;;;4.45;2.95;;;7.10;91.10;;;;;;4964516;28;20105;-74
2021/05/02 00:58:55;;;;;;;4.63;3.83;;;7.10;91.20;;;;;;4968717;28;20038;-75
2021/05/02 01:01:23;;;;;;;3.65;2.75;;;7.10;91.20;;;;;;4965576;28;20125;-75
2021/05/02 01:03:50;;;;;;;4.20;3.30;;;7.10;90.70;;;;;;4969335;28;20054;-75
2021/05/02 01:06:21;;;;;;;3.17;2.60;;;7.00;91.00;;;;;;4967312;28;20058;-75
2021/05/02 01:08:56;;;;;;;3.58;2.83;;;7.00;90.60;;;;;;4965251;28;20093;-75
2021/05/02 01:11:23;;;;;;;3.08;2.78;;;7.00;90.50;;;;;;4965459;28;20016;-75
2021/05/02 01:13:58;;;;;;;4.03;3.30;;;7.00;90.90;;;;;;4966104;28;20054;-75
2021/05/02 01:16:29;;;;;;;3.65;3.03;;;7.00;91.10;;;;;;4980840;28;20050;-75
2021/05/02 01:18:56;;;;;;;3.40;2.92;;;7.00;91.20;;;;;;4969113;28;20104;-76
2021/05/02 01:21:30;;;;;;;3.88;2.75;;;7.00;91.20;;;;;;4962134;28;20470;-75
2021/05/02 01:23:58;;;;;;;4.20;2.85;;;7.00;91.30;;;;;;4963075;28;20028;-75
2021/05/02 01:26:25;;;;;;;3.77;2.60;;;7.00;91.10;;;;;;4966177;28;20037;-75
2021/05/02 01:28:53;;;;;;;3.75;2.80;;;7.00;91.10;;;;;;4962568;28;20035;-75
2021/05/02 01:31:19;;;;;;;2.90;2.50;;;7.00;91.20;;;;;;4965423;28;20498;-75
2021/05/02 01:33:46;;;;;;;4.00;3.08;;;7.00;91.20;;;;;;4956789;28;20035;-74
2021/05/02 01:36:12;;;;;;;5.50;2.72;;;7.00;91.40;;;;;;4962517;28;20023;-75
2021/05/02 01:38:38;;;;;;;3.75;2.88;;;7.00;91.20;;;;;;4965256;28;20030;-75
2021/05/02 01:41:04;;;;;;;4.63;2.90;;;7.00;91.30;;;;;;4968885;28;20035;-75
2021/05/02 01:43:30;;;;;;;4.20;3.10;;;7.00;91.50;;;;;;4966992;28;20038;-74
2021/05/02 01:45:56;;;;;;;4.63;3.15;;;7.00;91.40;;;;;;4964395;28;20045;-76
2021/05/02 01:48:23;;;;;;;4.35;3.20;;;6.90;90.90;;;;;;4965683;28;20030;-74
2021/05/02 01:51:02;;;;;;;4.90;4.13;;;6.90;91.20;;;;;;4966652;28;20673;-75
2021/05/02 01:53:30;;;;;;;5.45;3.75;;;6.90;91.40;;;;;;4966165;28;22051;-75
2021/05/02 01:55:56;;;;;;;6.97;3.95;;;6.90;91.20;;;;;;4965031;28;20023;-75
2021/05/02 01:58:23;;;;;;;4.63;3.30;;;6.90;91.10;;;;;;4965940;28;20026;-75
2021/05/02 02:00:56;;;;;;;7.15;4.50;;;6.80;90.90;;;;;;4959755;28;20106;-75
2021/05/02 02:03:22;;;;;;;5.43;3.80;;;6.80;90.90;;;;;;4963997;28;20054;-75
2021/05/02 02:05:49;;;;;;;7.03;4.07;;;6.70;91.00;;;;;;4968229;28;20718;-75
2021/05/02 02:08:16;;;;;;;8.07;4.85;;;6.70;90.80;;;;;;4963270;28;20138;-75
2021/05/02 02:10:43;;;;;;;5.63;4.03;;;6.70;90.90;;;;;;4962004;28;20489;-76
2021/05/02 02:13:14;;;;;;;6.05;3.83;;;6.70;91.00;;;;;;4966290;28;20580;-75
2021/05/02 02:15:40;;;;;;;5.38;3.90;;;6.70;91.00;;;;;;4964376;28;20113;-74
2021/05/02 02:18:10;;;;;;;6.00;4.20;;;6.70;90.90;;;;;;4966685;28;20030;-75
2021/05/02 02:20:40;;;;;;;6.50;4.18;;;6.70;90.90;;;;;;4966212;28;20035;-75
2021/05/02 02:23:20;;;;;;;5.30;4.00;;;6.70;91.00;;;;;;4958782;28;20031;-75
2021/05/02 02:25:47;;;;;;;6.45;3.72;;;6.60;91.00;;;;;;4964847;28;20027;-75
2021/05/02 02:28:16;;;;;;;5.65;3.70;;;6.60;90.70;;;;;;4967398;28;20027;-75
2021/05/02 02:30:48;;;;;;;6.97;5.43;;;6.60;90.90;;;;;;4965925;28;20043;-76
2021/05/02 02:33:15;;;;;;;5.55;4.05;;;6.50;90.80;;;;;;4963004;28;20022;-75
2021/05/02 02:35:49;;;;;;;6.18;3.75;;;6.50;90.80;;;;;;4968117;28;20727;-75
2021/05/02 02:38:19;;;;;;;6.30;4.05;;;6.50;90.70;;;;;;4965325;28;20520;-75
2021/05/02 02:40:47;;;;;;;7.15;4.13;;;6.50;90.70;;;;;;4981061;28;20033;-75
2021/05/02 02:43:23;;;;;;;6.80;3.83;;;6.40;90.60;;;;;;4969027;28;20469;-75
2021/05/02 02:45:53;;;;;;;5.72;3.92;;;6.40;90.80;;;;;;4970074;28;20271;-75
2021/05/02 02:48:22;;;;;;;5.05;4.10;;;6.40;90.80;;;;;;4967310;28;20101;-75
2021/05/02 02:50:51;;;;;;;6.90;4.95;;;6.40;90.70;;;;;;4966392;28;20037;-75
2021/05/02 02:53:20;;;;;;;6.90;4.30;;;6.30;90.90;;;;;;4968115;28;20034;-75
2021/05/02 02:56:01;;;;;;;8.20;4.78;;;6.30;90.80;;;;;;4984005;28;20022;-75
2021/05/02 02:58:30;;;;;;;6.03;4.80;;;6.30;90.80;;;;;;4964744;28;20409;-75
2021/05/02 03:00:57;;;;;;;8.27;5.75;;;6.20;90.70;;;;;;4962310;28;20042;-75
2021/05/02 03:03:25;;;;;;;7.15;4.97;;;6.20;90.70;;;;;;4948455;28;20547;-75
2021/05/02 03:05:54;;;;;;;8.37;5.20;;;6.20;90.80;;;;;;4958477;28;20083;-75
2021/05/02 03:08:23;;;;;;;8.68;5.55;;;6.10;90.50;;;;;;4942381;28;20271;-75
2021/05/02 03:10:50;;;;;;;8.68;6.00;;;6.10;90.50;;;;;;4944459;28;20090;-75
2021/05/02 03:13:16;;;;;;;10.18;5.78;;;6.00;90.40;;;;;;4962262;28;20051;-75
2021/05/02 03:15:42;;;;;;;7.60;5.55;;;5.90;90.50;;;;;;4940273;28;20477;-75
2021/05/02 03:18:51;;;;;;;8.50;5.32;;;5.90;90.60;;;;;;4945698;28;20398;-75
2021/05/02 03:21:28;;;;;;;8.23;5.25;;;5.90;90.70;;;;;;4934749;28;20043;-75
2021/05/02 03:23:58;;;;;;;7.75;5.32;;;5.90;90.90;;;;;;4948426;28;20034;-75
2021/05/02 03:26:24;;;;;;;9.02;5.32;;;5.90;90.80;;;;;;4945380;28;20034;-75
2021/05/02 03:28:56;;;;;;;9.32;5.85;;;5.90;90.70;;;;;;4949947;28;20024;-75
2021/05/02 03:31:33;;;;;;;7.22;5.80;;;5.90;90.50;;;;;;4958812;28;20023;-75
2021/05/02 03:34:04;;;;;;;7.57;5.28;;;5.80;90.50;;;;;;4968968;28;20380;-75
2021/05/02 03:36:46;;;;;;;8.45;5.65;;;5.80;90.50;;;;;;4973259;28;20466;-75
2021/05/02 03:39:12;;;;;;;9.32;5.55;;;5.80;90.60;;;;;;4970646;28;20082;-76
2021/05/02 03:41:38;;;;;;;9.55;5.85;;;5.70;90.60;;;;;;4974622;28;20081;-75
2021/05/02 03:44:04;;;;;;;8.98;5.53;;;5.70;90.70;;;;;;4970825;28;20030;-75
2021/05/02 03:46:30;;;;;;;10.13;5.78;;;5.80;90.90;;;;;;4972362;28;20399;-75
2021/05/02 03:49:01;;;;;;;10.32;5.72;;;5.70;91.10;;;;;;4972718;28;20027;-75
2021/05/02 03:51:29;;;;;;;9.23;6.38;;;5.70;90.80;;;;;;4971349;28;20102;-75
2021/05/02 03:53:55;;;;;;;8.65;5.47;;;5.70;90.80;;;;;;4971344;28;20033;-75
2021/05/02 03:56:39;;;;;;;9.10;5.88;;;5.70;90.70;;;;;;4972800;28;20097;-75
2021/05/02 03:59:34;;;;;;;10.30;5.50;;;5.70;90.80;;;;;;4972416;28;20026;-76
2021/05/02 04:02:02;;;;;;;10.05;5.72;;;5.70;90.80;;;;;;4957617;28;20049;-76
2021/05/02 04:04:33;;;;;;;8.07;6.18;;;5.70;90.90;;;;;;4974055;28;20058;-75
2021/05/02 04:07:03;;;;;;;9.25;5.93;;;5.70;90.90;;;;;;4972990;28;20490;-76
2021/05/02 04:09:29;;;;;;;9.05;6.05;;;5.70;90.80;;;;;;4972363;28;20062;-75
2021/05/02 04:11:55;;;;;;;8.52;5.65;;;5.70;90.90;;;;;;4970352;28;20019;-75
2021/05/02 04:14:21;;;;;;;10.48;5.78;;;5.70;90.90;;;;;;4967866;28;20085;-75
2021/05/02 04:16:57;;;;;;;9.48;6.13;;;5.70;90.80;;;;;;4969670;28;20110;-75
2021/05/02 04:19:23;;;;;;;7.80;5.78;;;5.70;90.80;;;;;;4971955;28;20558;-75
2021/05/02 04:21:49;;;;;;;8.77;5.97;;;5.70;90.90;;;;;;4969283;28;20031;-75
2021/05/02 04:24:16;;;;;;;9.88;6.45;;;5.70;90.90;;;;;;4974931;28;20066;-75
2021/05/02 04:26:46;;;;;;;9.95;5.97;;;5.60;90.80;;;;;;4967423;28;20027;-75
2021/05/02 04:29:11;;;;;;;10.48;6.45;;;5.70;91.00;;;;;;4969737;28;20041;-75
2021/05/02 04:31:37;;;;;;;9.40;6.60;;;5.70;91.10;;;;;;4969188;28;20023;-75
2021/05/02 04:34:04;;;;;;;8.55;6.05;;;5.70;91.00;;;;;;4971295;28;20434;-75
2021/05/02 04:36:31;;;;;;;7.93;5.68;;;5.70;90.80;;;;;;4963826;28;20271;-74
2021/05/02 04:38:57;;;;;;;7.20;5.50;;;5.60;91.00;;;;;;4970382;28;20050;-74
2021/05/02 04:41:23;;;;;;;8.70;6.05;;;5.70;91.10;;;;;;4962205;28;20520;-75
2021/05/02 04:43:49;;;;;;;10.15;7.25;;;5.60;90.90;;;;;;4971683;28;20050;-74
2021/05/02 04:46:15;;;;;;;10.77;6.18;;;5.60;91.10;;;;;;4967639;28;20550;-75
2021/05/02 04:48:41;;;;;;;10.27;6.95;;;5.60;91.10;;;;;;4961733;28;20053;-75
2021/05/02 04:51:07;;;;;;;9.70;6.40;;;5.60;91.70;;;;;;4966845;28;20034;-75
2021/05/02 04:53:33;;;;;;;8.85;6.03;;;5.60;91.20;;;;;;4967655;28;20023;-74
2021/05/02 04:55:59;;;;;;;10.32;6.22;;;5.60;91.30;;;;;;4968858;28;20117;-75
2021/05/02 04:58:25;;;;;;;10.30;6.13;;;5.60;91.40;;;;;;4971295;28;20102;-75
2021/05/02 05:00:50;;;;;;;9.93;6.53;;;5.60;91.40;;;;;;4967286;28;20031;-75
2021/05/02 05:03:19;;;;;;;10.15;6.88;;;5.60;91.20;;;;;;4971768;28;20034;-76
2021/05/02 05:05:44;;;;;;;;;;;5.60;91.50;;;;;;4970452;28;20038;-75
2021/05/02 05:08:10;;;;;;;7.80;4.97;;;5.60;91.40;;;;;;4973001;28;19913;-76
2021/05/02 05:10:36;;;;;;;10.10;5.45;;;5.60;91.20;;;;;;4965863;28;20027;-76
2021/05/02 05:13:02;;;;;;;5.65;4.47;;;5.60;91.30;;;;;;4968917;28;20023;-75
2021/05/02 05:15:28;;;;;;;8.93;5.90;;;5.60;91.20;;;;;;4963814;28;20126;-75
2021/05/02 05:17:54;;;;;;;7.97;5.70;;;5.70;91.30;;;;;;4967112;28;20035;-75
2021/05/02 05:20:20;;;;;;;7.93;4.72;;;5.70;91.10;;;;;;4965563;28;20081;-75
2021/05/02 05:22:45;;;;;;;7.72;5.07;;;5.60;91.10;;;;;;4965711;28;20062;-75
2021/05/02 05:25:11;;;;;;;8.90;5.75;;;5.70;91.50;;;;;;4968781;28;20034;-74
2021/05/02 05:27:37;;;;;;;10.30;5.65;;;5.70;91.40;;;;;;4968081;28;20029;-75
2021/05/02 05:30:04;;;;;;;8.20;5.85;;;5.80;91.40;;;;;;4962969;28;20046;-74
2021/05/02 05:32:29;;;;;;;8.95;6.22;;;5.80;91.10;;;;;;4964212;28;20035;-74
2021/05/02 05:34:55;;;;;;;9.90;5.40;;;5.80;91.20;;;;;;4967141;28;20175;-75
2021/05/02 05:37:21;;;;;;;9.32;5.30;;;5.80;90.90;;;;;;4970287;28;20042;-76
2021/05/02 05:39:48;;;;;;;9.80;5.97;;;5.80;91.10;;;;;;4966856;28;20031;-75
2021/05/02 05:42:13;;;;;;;9.70;5.75;;;5.80;91.20;;;;;;4967491;28;20026;-75
2021/05/02 05:44:39;;;;;;;10.18;6.25;;;5.80;90.90;;;;;;4967079;28;20312;-75
2021/05/02 05:47:05;;;;;;;9.57;5.57;;;5.70;90.70;;;;;;4965926;28;20038;-76
2021/05/02 05:49:30;;;;;;;10.15;6.68;;;5.80;90.90;;;;;;4967307;28;20121;-75
2021/05/02 05:51:56;;;;;;;10.77;6.32;;;5.80;90.60;;;;;;4965876;28;20031;-75
2021/05/02 05:54:22;;;;;;;10.93;6.10;;;5.80;90.80;;;;;;4968248;28;20635;-75
2021/05/02 05:56:48;;;;;;;10.55;6.82;;;5.80;90.80;;;;;;4978601;28;20027;-75
2021/05/02 05:59:14;;;;;;;10.32;6.93;;;5.80;90.80;;;;;;4968440;28;20508;-75
2021/05/02 06:01:40;;;;;;;10.60;6.47;;;5.70;90.90;;;;;;4963402;28;20339;-75
2021/05/02 06:04:05;;;;;;;8.90;6.30;;;5.80;91.10;;;;;;4966413;28;20051;-75
2021/05/02 06:06:40;;;;;;;12.52;7.55;;;5.80;91.20;;;;;;4962987;28;20473;-76
2021/05/02 06:09:08;;;;;;;10.10;6.82;;;5.80;91.00;;;;;;4966337;28;20055;-75
2021/05/02 06:11:34;;;;;;;11.18;7.07;;;5.80;91.00;;;;;;4976401;28;20023;-76
2021/05/02 06:14:01;;;;;;;11.05;5.97;;;5.80;91.10;;;;;;4966435;28;20046;-76
2021/05/02 06:16:27;;;;;;;12.35;7.45;;;5.90;91.20;;;;;;4966980;28;20077;-76
2021/05/02 06:18:54;;;;;;;9.85;6.32;;;5.80;90.70;;;;;;4967507;28;20501;-76
2021/05/02 06:21:21;;;;;;;11.30;7.03;;;5.80;90.90;;;;;;4964843;28;20222;-75
2021/05/02 06:23:47;;;;;;;10.80;6.88;;;5.80;90.50;;;;;;4968450;28;20066;-75
2021/05/02 06:26:15;;;;;;;11.20;7.10;;;5.80;90.80;;;;;;4967579;28;20054;-75
2021/05/02 06:28:41;;;;;;;13.35;7.85;;;5.80;90.60;;;;;;4966143;28;20023;-76
2021/05/02 06:31:08;;;;;;;13.60;7.30;;;5.80;90.80;;;;;;4964922;28;20062;-76
2021/05/02 06:33:35;;;;;;;12.27;7.25;;;5.80;90.80;;;;;;4968328;28;20022;-75
2021/05/02 06:36:00;;;;;;;12.07;8.02;;;5.80;90.80;;;;;;4965348;28;20034;-75
2021/05/02 06:38:26;;;;;;;14.23;7.80;;;5.80;91.00;;;;;;4969778;28;20073;-75
2021/05/02 06:40:52;;;;;;;10.40;7.38;;;5.90;91.10;;;;;;4970307;28;20026;-74
2021/05/02 06:43:17;;;;;;;13.15;8.00;;;5.90;90.90;;;;;;4966926;28;20030;-75
2021/05/02 06:45:43;;;;;;;13.43;8.60;;;5.90;91.10;;;;;;4962815;28;20101;-75
2021/05/02 06:48:09;;;;;;;13.40;8.13;;;5.90;91.10;;;;;;4960683;28;20601;-75
2021/05/02 06:50:35;;;;;;;14.18;8.85;;;5.90;90.80;;;;;;4961192;28;20023;-75
2021/05/02 06:53:00;;;;;;;12.80;8.75;;;5.90;90.60;;;;;;4968129;28;20498;-75
2021/05/02 06:55:26;;;;;;;13.98;9.43;;;6.00;90.60;;;;;;4967567;28;20470;-75
2021/05/02 06:57:52;;;;;;;14.23;8.98;;;6.00;90.50;;;;;;4964996;28;20092;-76
2021/05/02 07:00:18;;;;;;;14.85;9.52;;;6.10;90.20;;;;;;4960978;28;20049;-74
2021/05/02 07:02:43;;;;;;;13.02;9.20;;;6.10;90.00;;;;;;4962490;28;20031;-75
2021/05/02 07:05:10;;;;;;;13.88;8.63;;;6.00;88.50;;;;;;4963221;28;20033;-75
2021/05/02 07:07:35;;;;;;;13.65;9.52;;;5.90;88.10;;;;;;4962825;28;20642;-75
2021/05/02 07:10:01;;;;;;;15.88;10.25;;;5.90;89.60;;;;;;4968398;28;20035;-76
2021/05/02 07:12:26;;;;;;;14.70;10.10;;;5.90;89.00;;;;;;4966052;28;20482;-75
2021/05/02 07:14:52;;;;;;;16.00;9.63;;;5.90;87.80;;;;;;4965433;28;20034;-74
2021/05/02 07:17:18;;;;;;;14.52;10.25;;;5.90;88.00;;;;;;4964781;28;20046;-75
2021/05/02 07:19:44;;;;;;;19.90;10.88;;;5.90;89.20;;;;;;4968603;28;20486;-75
2021/05/02 07:22:10;;;;;;;15.90;9.77;;;5.90;88.70;;;;;;4963783;28;20147;-75
2021/05/02 07:24:36;;;;;;;14.82;10.05;;;5.90;89.80;;;;;;4967053;28;20054;-75
2021/05/02 07:27:03;;;;;;;15.85;10.02;;;5.90;90.20;;;;;;4962296;28;20520;-76
2021/05/02 07:29:28;;;;;;;15.55;9.98;;;5.90;90.40;;;;;;4978822;28;20054;-74
2021/05/02 07:31:54;;;;;;;18.13;10.35;;;5.90;89.90;;;;;;4963435;28;20031;-74
2021/05/02 07:34:19;;;;;;;16.95;10.18;;;5.90;90.00;;;;;;4965612;28;20397;-75
2021/05/02 07:36:45;;;;;;;15.90;10.15;;;5.90;90.30;;;;;;4963177;28;20594;-75
2021/05/02 07:39:11;;;;;;;14.18;10.02;;;6.00;90.00;;;;;;4966647;28;20405;-75
2021/05/02 07:41:36;;;;;;;16.95;10.75;;;5.90;90.10;;;;;;4961488;28;20085;-76
2021/05/02 07:44:02;;;;;;;15.48;10.82;;;6.00;90.80;;;;;;4963223;28;20031;-75
2021/05/02 07:46:28;;;;;;;18.63;11.85;;;6.00;90.10;;;;;;4963900;28;20085;-76
2021/05/02 07:48:54;;;;;;;17.67;10.52;;;6.00;89.90;;;;;;4964971;28;20026;-74
2021/05/02 07:51:19;;;;;;;17.17;11.25;;;6.00;90.10;;;;;;4959981;28;20043;-75
2021/05/02 07:53:47;;;;;;;15.52;9.77;;;6.10;90.30;;;;;;4968528;28;20027;-76
2021/05/02 07:56:13;;;;;;;17.73;11.20;;;6.10;89.60;;;;;;4965126;28;20497;-75
2021/05/02 07:58:38;;;;;;;16.58;10.43;;;6.00;88.70;;;;;;4962530;28;20065;-75
2021/05/02 08:01:04;;;;;;;12.45;8.90;;;6.00;89.80;;;;;;4959618;28;20513;-76
2021/05/02 08:03:29;;;;;;;14.10;9.63;;;6.00;89.30;;;;;;4961464;28;20109;-75
2021/05/02 08:05:55;;;;;;;13.18;9.40;;;6.00;89.50;;;;;;4960632;28;20521;-75
2021/05/02 08:08:21;;;;;;;14.40;9.60;;;6.00;89.80;;;;;;4980779;28;20037;-75
2021/05/02 08:10:46;;;;;;;14.27;9.52;;;6.00;89.10;;;;;;4963595;28;20458;-75
2021/05/02 08:13:19;;;;;;;16.15;10.07;;;6.10;90.00;;;;;;4964132;28;20541;-76
2021/05/02 08:15:45;;;;;;;15.55;9.80;;;6.20;90.40;;;;;;4971197;28;20029;-75
2021/05/02 08:18:11;;;;;;;16.45;9.82;;;6.20;90.40;;;;;;4966699;28;20101;-75
2021/05/02 08:20:37;;;;;;;14.73;9.18;;;6.30;90.40;;;;;;4969758;28;20056;-75
2021/05/02 08:23:02;;;;;;;13.00;8.95;;;6.40;90.40;;;;;;4972522;28;20019;-75
2021/05/02 08:25:28;;;;;;;13.70;9.10;;;6.30;90.00;;;;;;4966217;28;20034;-76
2021/05/02 08:27:54;;;;;;;15.18;8.98;;;6.40;89.20;;;;;;4966209;28;20540;-74
2021/05/02 08:30:20;;;;;;;15.55;9.35;;;6.40;90.00;;;;;;4969848;28;20512;-76
2021/05/02 08:32:45;;;;;;;13.70;8.98;;;6.50;89.10;;;;;;4966150;28;20505;-75
2021/05/02 08:35:12;;;;;;;14.82;8.98;;;6.40;89.70;;;;;;4970507;28;20150;-75
2021/05/02 08:37:37;;;;;;;12.40;9.02;;;6.40;89.00;;;;;;4968598;28;20114;-75
2021/05/02 08:40:05;;;;;;;13.48;9.73;;;6.40;85.80;;;;;;4968609;28;20113;-76
2021/05/02 08:42:30;;;;;;;15.10;9.65;;;6.30;86.80;;;;;;4970811;28;20023;-75
2021/05/02 08:44:57;;;;;;;17.50;9.63;;;6.40;88.50;;;;;;4967007;28;20109;-76
2021/05/02 08:47:22;;;;;;;13.73;8.75;;;6.40;86.10;;;;;;4965729;28;20138;-75
2021/05/02 08:49:48;;;;;;;12.88;9.45;;;6.40;88.20;;;;;;4969395;28;20034;-75
2021/05/02 08:52:13;;;;;;;11.52;8.95;;;6.40;88.00;;;;;;4969949;28;20429;-74
2021/05/02 08:54:39;;;;;;;13.80;9.48;;;6.50;88.70;;;;;;4961131;28;20030;-76
2021/05/02 08:57:05;;;;;;;13.98;9.32;;;6.60;88.80;;;;;;4984955;28;20019;-76
2021/05/02 08:59:31;;;;;;;15.35;9.27;;;6.60;87.70;;;;;;4969554;28;20516;-75
2021/05/02 09:01:58;;;;;;;15.05;9.27;;;6.70;88.10;;;;;;4966677;28;20034;-76
2021/05/02 09:04:24;;;;;;;16.90;10.10;;;6.80;89.00;;;;;;4965876;28;20239;-75
2021/05/02 09:06:50;;;;;;;16.50;10.65;;;6.80;85.10;;;;;;4965030;28;20109;-76
2021/05/02 09:09:16;;;;;;;15.65;9.98;;;6.80;87.10;;;;;;4965397;28;20034;-75
2021/05/02 09:11:55;;;;;;;17.70;10.52;;;6.80;86.80;;;;;;4967523;28;20027;-76
2021/05/02 09:14:21;;;;;;;15.38;9.77;;;6.90;88.50;;;;;;4968975;28;20630;-76
2021/05/02 09:17:20;;;;;;;15.77;9.40;;;6.80;86.40;;;;;;4965851;28;20031;-76
2021/05/02 09:19:50;;;;;;;15.45;10.40;;;6.80;85.60;;;;;;4967521;28;20035;-75
2021/05/02 09:22:17;;;;;;;14.30;10.48;;;6.90;86.30;;;;;;4959659;28;20022;-77
2021/05/02 09:25:01;;;;;;;17.52;11.38;;;6.90;86.80;;;;;;4958861;28;20116;-75
2021/05/02 09:27:27;;;;;;;20.30;12.18;;;7.00;84.70;;;;;;4957080;28;20080;-75
2021/05/02 09:29:53;;;;;;;14.95;10.52;;;7.00;85.90;;;;;;4959138;28;20039;-76
2021/05/02 09:32:22;;;;;;;16.80;11.57;;;7.00;84.50;;;;;;4964636;28;20053;-76
2021/05/02 09:34:53;;;;;;;18.17;12.55;;;7.10;84.80;;;;;;4968688;28;20077;-76
2021/05/02 09:37:21;;;;;;;20.90;12.35;;;7.30;86.80;;;;;;4966501;28;20027;-76
2021/05/02 09:39:48;;;;;;;17.55;11.95;;;7.40;85.70;;;;;;4969101;28;20073;-76
2021/05/02 09:42:32;;;;;;;19.38;12.85;;;7.40;83.00;;;;;;4967095;28;20446;-76
2021/05/02 09:44:59;;;;;;;22.70;12.88;;;7.60;85.50;;;;;;4965349;28;20027;-76
2021/05/02 09:47:33;;;;;;;20.23;12.73;;;7.60;83.10;;;;;;4963490;28;20390;-75
2021/05/02 09:50:18;;;;;;;17.38;11.73;;;7.60;82.00;;;;;;4967201;28;20030;-76
2021/05/02 09:52:54;;;;;;;20.30;12.90;;;7.50;81.00;;;;;;4966319;28;20014;-76
2021/05/02 09:55:34;;;;;;;16.63;11.27;;;7.50;82.80;;;;;;4967062;28;20027;-76
2021/05/02 09:58:05;;;;;;;19.83;12.48;;;7.40;79.90;;;;;;4966400;28;20081;-77
2021/05/02 10:00:37;;;;;;;20.15;12.30;;;7.40;83.10;;;;;;4965837;28;20105;-76
2021/05/02 10:03:07;;;;;;;21.70;12.65;;;7.30;83.70;;;;;;4968115;28;20065;-76
2021/05/02 10:05:34;;;;;;;20.48;11.88;;;7.20;84.50;;;;;;4969422;28;20031;-76
2021/05/02 10:08:00;;;;;;;22.13;12.70;;;7.10;84.90;;;;;;4966611;28;20395;-76
2021/05/02 10:10:27;;;;;;;20.92;13.35;;;7.10;85.20;;;;;;4968601;28;20097;-76
2021/05/02 10:12:54;;;;;;;22.90;14.27;;;7.20;87.00;;;;;;4968842;28;20023;-76
2021/05/02 10:15:24;;;;;;;23.40;13.93;;;7.30;87.50;;;;;;4965190;28;20462;-76
2021/05/02 10:17:53;;;;;;;23.02;13.60;;;7.30;87.00;;;;;;4967740;28;20097;-76
2021/05/02 10:20:20;;;;;;;25.20;15.05;;;7.50;86.70;;;;;;4965204;28;20504;-76
2021/05/02 10:22:50;;;;;;;22.00;14.00;;;7.60;86.00;;;;;;4964599;28;20034;-76
2021/05/02 10:25:16;;;;;;;24.17;14.68;;;7.60;85.10;;;;;;4962065;28;20050;-76
2021/05/02 10:27:46;;;;;;;27.67;16.10;;;7.70;85.30;;;;;;4960708;28;20070;-76
2021/05/02 10:30:21;;;;;;;24.90;14.65;;;7.70;87.00;;;;;;4960568;28;20027;-76
2021/05/02 10:32:51;;;;;;;23.60;15.00;;;7.80;85.50;;;;;;4959566;28;20071;-76
2021/05/02 10:35:17;;;;;;;26.77;15.70;;;7.70;86.30;;;;;;4968556;28;20077;-76
2021/05/02 10:38:01;;;;;;;24.35;15.77;;;7.80;85.50;;;;;;4961921;28;20024;-76
2021/05/02 10:40:30;;;;;;;25.58;15.68;;;7.80;85.20;;;;;;4977331;28;20118;-76
2021/05/02 10:43:01;;;;;;;24.13;15.60;;;7.70;85.30;;;;;;4967061;28;20035;-76
2021/05/02 10:45:45;;;;;;;22.63;15.45;;;7.70;84.40;;;;;;4965575;28;20037;-76
2021/05/02 10:48:37;;;;;;;24.48;15.07;;;7.70;83.70;;;;;;4964777;28;20586;-76
2021/05/02 10:51:23;;;;;;;23.55;14.65;;;7.70;85.00;;;;;;4966521;28;20050;-75
2021/05/02 10:54:07;;;;;;;25.08;15.40;;;7.70;83.40;;;;;;4964803;28;20034;-77
2021/05/02 10:56:50;;;;;;;26.60;15.40;;;7.70;83.10;;;;;;4961884;28;20552;-77
2021/05/02 10:59:17;;;;;;;25.17;16.80;;;7.70;84.10;;;;;;4954816;28;20019;-75
2021/05/02 11:01:43;;;;;;;26.80;15.48;;;7.80;84.00;;;;;;4956245;28;20551;-76
2021/05/02 11:04:09;;;;;;;24.60;16.00;;;7.70;82.90;;;;;;4964052;28;20197;-76
2021/05/02 11:06:38;;;;;;;23.15;14.40;;;7.70;81.30;;;;;;4965941;28;20418;-76
2021/05/02 11:09:08;;;;;;;24.98;15.38;;;7.80;83.20;;;;;;4968105;28;20521;-76
2021/05/02 11:11:38;;;;;;;25.67;16.05;;;7.90;84.10;;;;;;4964512;28;20027;-76
2021/05/02 11:16:49;;;;;;;24.33;14.93;;;7.90;81.10;;;;;;4966617;28;20031;-75
2021/05/02 11:19:18;;;;;;;28.15;16.77;;;8.10;79.70;;;;;;4959462;28;20114;-76
2021/05/02 11:21:47;;;;;;;25.23;16.52;;;8.10;81.50;;;;;;4966161;28;20026;-76
2021/05/02 11:24:21;;;;;;;23.00;14.82;;;8.30;80.40;;;;;;4965729;28;20053;-76
2021/05/02 11:27:01;;;;;;;25.70;16.92;;;8.40;79.10;;;;;;4961150;28;20026;-75
2021/05/02 11:30:01;;;;;;;28.70;16.88;;;8.70;80.10;;;;;;4967250;28;20019;-77
2021/05/02 11:32:27;;;;;;;23.70;15.30;;;8.80;81.10;;;;;;4968465;28;20031;-76
2021/05/02 11:34:54;;;;;;;25.85;15.63;;;8.90;76.80;;;;;;4953057;28;20083;-77
2021/05/02 11:37:51;;;;;;;27.33;15.80;;;9.10;79.60;;;;;;4957984;28;20034;-76
2021/05/02 11:40:28;;;;;;;23.42;15.40;;;9.20;76.90;;;;;;4952905;28;20077;-76
2021/05/02 11:43:17;;;;;;;28.23;16.50;;;9.30;76.20;;;;;;4953439;28;20035;-76
2021/05/02 11:45:52;;;;;;;24.38;15.25;;;9.30;75.80;;;;;;4959822;28;20072;-75
2021/05/02 11:48:25;;;;;;;23.33;14.07;;;9.20;73.60;;;;;;4961530;28;20073;-76
2021/05/02 11:50:55;;;;;;;25.80;16.48;;;9.30;76.00;;;;;;4961594;28;20022;-76
2021/05/02 11:53:59;;;;;;;26.75;15.55;;;9.30;74.30;;;;;;4979500;28;20027;-76
2021/05/02 11:56:29;;;;;;;22.15;14.48;;;9.30;77.50;;;;;;4963337;28;20650;-76
2021/05/02 11:59:06;;;;;;;23.40;15.13;;;9.40;73.80;;;;;;4962841;28;20506;-76
2021/05/02 12:01:32;;;;;;;19.73;14.75;;;9.40;73.60;;;;;;4968884;28;20556;-77
2021/05/02 12:04:04;;;;;;;27.77;15.80;;;9.30;74.20;;;;;;4969014;28;20027;-77
2021/05/02 12:06:32;;;;;;;21.65;14.45;;;9.30;73.30;;;;;;4967526;28;20101;-77
2021/05/02 12:08:59;;;;;;;21.67;15.43;;;9.20;75.40;;;;;;4972735;28;20034;-77
2021/05/02 12:11:26;;;;;;;23.02;14.65;;;9.20;75.30;;;;;;4983369;28;20039;-77
2021/05/02 12:13:54;;;;;;;22.15;14.50;;;9.30;74.40;;;;;;4973377;28;20110;-77
2021/05/02 12:16:20;;;;;;;;;;;9.40;75.30;;;;;;4971548;28;20106;-77
2021/05/02 12:18:56;;;;;;;22.95;13.98;;;9.40;73.70;;;;;;4971754;28;19988;-76
2021/05/02 12:21:28;;;;;;;22.75;13.57;;;9.40;74.30;;;;;;4971419;28;20018;-78
2021/05/02 12:24:19;;;;;;;19.92;13.13;;;9.50;74.10;;;;;;4972268;28;20015;-77
2021/05/02 12:26:50;;;;;;;19.75;13.68;;;9.70;72.10;;;;;;4969253;28;20157;-76
2021/05/02 12:29:25;;;;;;;19.70;13.48;;;9.70;73.40;;;;;;4969988;28;20066;-76
2021/05/02 12:31:56;;;;;;;19.55;12.95;;;9.90;72.10;;;;;;4967986;28;20027;-78
2021/05/02 12:34:25;;;;;;;21.88;14.30;;;10.00;70.10;;;;;;4970966;28;20075;-76
2021/05/02 12:36:54;;;;;;;20.40;12.88;;;10.00;70.70;;;;;;4970932;28;20159;-75
2021/05/02 12:39:20;;;;;;;18.33;12.88;;;10.00;72.40;;;;;;4971679;28;20030;-77
2021/05/02 12:41:55;;;;;;;19.25;12.38;;;9.90;70.10;;;;;;4970436;28;20019;-78
2021/05/02 12:44:25;;;;;;;17.15;12.75;;;9.90;69.30;;;;;;4966643;28;20133;-76
2021/05/02 12:46:53;;;;;;;19.73;13.38;;;9.90;69.10;;;;;;4970531;28;20509;-77
2021/05/02 12:49:24;;;;;;;20.73;12.75;;;9.90;69.70;;;;;;4972343;28;20027;-77
2021/05/02 12:51:58;;;;;;;16.17;11.77;;;9.90;70.40;;;;;;4972107;28;20027;-77
2021/05/02 12:54:26;;;;;;;17.08;12.18;;;9.90;67.90;;;;;;4972006;28;20027;-78
2021/05/02 12:57:12;;;;;;;18.20;13.30;;;9.90;70.80;;;;;;4971312;28;20041;-77
2021/05/02 13:02:25;;;;;;;19.23;13.05;;;9.90;69.80;;;;;;4969620;28;20108;-75
2021/05/02 13:04:52;;;;;;;16.38;11.23;;;9.90;68.50;;;;;;4969894;28;20084;-76